Time;durP1;ratioP1;P1;durP2;ratioP2;P2;SDS_P1;SDS_P2;PMS_P1;PMS_P2;Temp;Humidity;BMP_temperature;BMP_pressure;BME280_temperature;BME280_humidity;BME280_pressure;Samples;Min_cycle;Max_cycle;Signal;HPM_P1;HPM_P2
2023/07/11 00:00:54;;;;;;;2.05;1.20;;;;;;;26.96;42.87;101415.63;5053916;28;20112;-63
2023/07/11 00:03:20;;;;;;;3.20;1.10;;;;;;;26.94;43.06;101416.91;5055139;28;20033;-63
2023/07/11 00:06:00;;;;;;;1.52;0.90;;;;;;;26.89;43.02;101414.81;5053788;28;20128;-63
2023/07/11 00:08:26;;;;;;;6.38;1.42;;;;;;;26.89;42.52;101403.81;5052639;28;20041;-62
2023/07/11 00:10:52;;;;;;;3.20;1.48;;;;;;;26.86;43.17;101415.25;5033556;28;20099;-62
2023/07/11 00:13:18;;;;;;;4.20;1.23;;;;;;;26.83;43.20;101409.38;5052334;28;20041;-62
2023/07/11 00:15:43;;;;;;;2.28;1.52;;;;;;;26.78;43.07;101401.78;5047385;28;20033;-63
2023/07/11 00:18:09;;;;;;;10.45;1.88;;;;;;;26.76;43.33;101405.78;5024021;28;20033;-62
2023/07/11 00:20:34;;;;;;;4.13;1.63;;;;;;;26.68;42.67;101389.53;5041569;28;20406;-63
2023/07/11 00:22:59;;;;;;;4.25;1.63;;;;;;;26.69;43.15;101400.31;5053521;28;20025;-62
2023/07/11 00:25:25;;;;;;;2.28;1.08;;;;;;;26.65;42.78;101399.09;5037000;28;20404;-62
2023/07/11 00:27:50;;;;;;;5.10;1.20;;;;;;;26.61;43.50;101398.66;5053169;28;20124;-62
2023/07/11 00:30:16;;;;;;;8.35;1.33;;;;;;;26.59;43.11;101399.97;5053191;28;20511;-62
2023/07/11 00:32:41;;;;;;;2.85;1.75;;;;;;;26.53;42.96;101401.69;5033220;28;20119;-62
2023/07/11 00:35:07;;;;;;;6.18;1.70;;;;;;;26.49;43.20;101396.84;5050135;28;20053;-62
2023/07/11 00:37:34;;;;;;;2.25;1.30;;;;;;;26.43;43.38;101397.72;5050546;28;20064;-63
2023/07/11 00:39:59;;;;;;;2.95;1.13;;;;;;;26.39;43.45;101390.97;5043884;28;20029;-62
2023/07/11 00:42:25;;;;;;;3.90;1.80;;;;;;;26.34;43.45;101397.13;5048962;28;20033;-62
2023/07/11 00:44:59;;;;;;;7.30;1.30;;;;;;;26.31;44.11;101389.31;5053059;28;20025;-62
2023/07/11 00:47:26;;;;;;;4.40;1.38;;;;;;;26.28;43.79;101399.91;5026184;28;20033;-61
2023/07/11 00:50:02;;;;;;;1.50;1.20;;;;;;;26.25;43.35;101383.84;5015554;28;20034;-62
2023/07/11 00:52:29;;;;;;;2.45;1.20;;;;;;;26.21;43.97;101382.63;5038656;28;20111;-62
2023/07/11 00:54:58;;;;;;;6.93;1.35;;;;;;;26.20;44.18;101386.41;5032731;28;20473;-62
2023/07/11 00:57:25;;;;;;;3.67;1.63;;;;;;;26.16;43.74;101385.19;5034436;28;20453;-62
2023/07/11 00:59:51;;;;;;;2.85;1.17;;;;;;;26.12;43.98;101375.63;5034393;28;20040;-62
2023/07/11 01:02:20;;;;;;;3.63;1.00;;;;;;;26.07;44.06;101376.31;5034620;28;20036;-62
2023/07/11 01:04:46;;;;;;;2.17;1.02;;;;;;;26.05;44.37;101373.75;5016408;28;20034;-61
2023/07/11 01:07:15;;;;;;;2.80;1.67;;;;;;;26.00;44.03;101372.72;5032890;28;20038;-63
2023/07/11 01:09:40;;;;;;;3.58;1.75;;;;;;;26.00;43.67;101376.31;5049784;28;20485;-62
2023/07/11 01:12:08;;;;;;;5.07;1.40;;;;;;;25.97;44.15;101365.75;5032789;28;20117;-62
2023/07/11 01:14:34;;;;;;;3.42;1.15;;;;;;;25.94;43.91;101377.19;5032569;28;20038;-62
2023/07/11 01:17:00;;;;;;;2.47;1.23;;;;;;;25.92;43.87;101368.31;5032673;28;20025;-62
2023/07/11 01:19:26;;;;;;;3.40;1.10;;;;;;;25.90;44.10;101375.09;5049264;28;20511;-62
2023/07/11 01:21:51;;;;;;;1.58;1.10;;;;;;;25.89;43.94;101368.75;5049182;28;20033;-62
2023/07/11 01:24:17;;;;;;;3.22;1.38;;;;;;;25.87;43.69;101373.63;5032306;28;20505;-62
2023/07/11 01:26:43;;;;;;;5.28;1.42;;;;;;;25.83;44.20;101375.09;5032231;28;20512;-62
2023/07/11 01:29:09;;;;;;;2.30;1.13;;;;;;;25.79;44.29;101368.38;5032417;28;20032;-61
2023/07/11 01:31:35;;;;;;;6.97;1.27;;;;;;;25.77;43.98;101369.63;5032199;28;20026;-62
2023/07/11 01:34:03;;;;;;;2.35;1.05;;;;;;;25.73;44.14;101363.75;5032269;28;20046;-62
2023/07/11 01:36:28;;;;;;;3.65;1.40;;;;;;;25.69;44.30;101354.25;5032061;28;20036;-62
2023/07/11 01:38:53;;;;;;;1.98;1.33;;;;;;;25.66;44.98;101359.31;5032391;28;20025;-61
2023/07/11 01:41:19;;;;;;;7.47;1.58;;;;;;;25.61;44.25;101356.38;5032150;28;20037;-62
2023/07/11 01:43:44;;;;;;;5.65;1.10;;;;;;;25.59;44.59;101359.34;5032141;28;20030;-62
2023/07/11 01:46:10;;;;;;;3.42;1.00;;;;;;;25.57;44.52;101353.22;5048589;28;20054;-62
2023/07/11 01:48:35;;;;;;;2.35;0.95;;;;;;;25.56;44.25;101346.03;5031924;28;20038;-61
2023/07/11 01:51:01;;;;;;;3.00;1.35;;;;;;;25.53;44.39;101346.47;5015906;28;20107;-61
2023/07/11 01:53:26;;;;;;;1.92;0.90;;;;;;;25.51;44.29;101340.38;5033122;28;20033;-62
2023/07/11 01:55:57;;;;;;;3.03;1.30;;;;;;;25.50;44.57;101344.16;5031931;28;20044;-62
2023/07/11 01:58:22;;;;;;;1.85;1.00;;;;;;;25.47;44.63;101341.84;5031686;28;20041;-62
2023/07/11 02:00:47;;;;;;;2.03;1.15;;;;;;;25.44;44.69;101343.06;5032688;28;20403;-61
2023/07/11 02:03:13;;;;;;;1.80;1.05;;;;;;;25.41;44.67;101339.91;5033063;28;20040;-62
2023/07/11 02:05:39;;;;;;;3.25;1.40;;;;;;;25.38;44.63;101341.19;5031703;28;20412;-62
2023/07/11 02:08:05;;;;;;;3.70;1.73;;;;;;;25.34;44.35;101330.84;5031827;28;20038;-61
2023/07/11 02:10:30;;;;;;;1.13;1.00;;;;;;;25.35;44.72;101338.00;5015690;28;20095;-62
2023/07/11 02:12:55;;;;;;;4.40;1.27;;;;;;;25.31;44.48;101331.28;5048533;28;20497;-62
2023/07/11 02:15:21;;;;;;;4.10;1.10;;;;;;;25.29;44.49;101334.22;5031796;28;20044;-62
2023/07/11 02:17:46;;;;;;;2.53;1.27;;;;;;;25.26;44.54;101328.34;5015249;28;20026;-62
2023/07/11 02:20:11;;;;;;;3.38;1.73;;;;;;;25.23;44.41;101313.16;5015092;28;20042;-63
2023/07/11 02:22:37;;;;;;;2.88;1.50;;;;;;;25.18;44.91;101315.66;5015245;28;20041;-63
2023/07/11 02:25:03;;;;;;;4.68;1.25;;;;;;;25.17;44.61;101318.63;5031749;28;20045;-62
2023/07/11 02:27:28;;;;;;;5.43;1.70;;;;;;;25.15;44.89;101315.28;5014918;28;20054;-62
2023/07/11 02:29:54;;;;;;;2.35;1.10;;;;;;;25.13;44.90;101312.72;5030346;28;20072;-63
2023/07/11 02:32:19;;;;;;;5.43;2.55;;;;;;;25.10;44.65;101306.84;5031360;28;20033;-62
2023/07/11 02:34:45;;;;;;;3.63;1.40;;;;;;;25.09;45.62;101305.16;5031454;28;20556;-62
2023/07/11 02:37:10;;;;;;;4.20;1.30;;;;;;;25.07;44.80;101301.78;5032673;28;20076;-62
2023/07/11 02:39:35;;;;;;;1.92;1.30;;;;;;;25.08;45.08;101306.19;5031366;28;20042;-62
2023/07/11 02:42:01;;;;;;;7.47;2.70;;;;;;;25.06;44.42;101305.56;5032733;28;20421;-62
2023/07/11 02:44:26;;;;;;;3.42;1.00;;;;;;;25.02;44.84;101304.28;5032868;28;20033;-61
2023/07/11 02:46:52;;;;;;;6.47;2.55;;;;;;;25.01;44.81;101298.00;5031305;28;20128;-63
2023/07/11 02:49:19;;;;;;;2.72;1.45;;;;;;;24.99;45.67;101294.59;5032639;28;20064;-62
2023/07/11 02:51:46;;;;;;;4.22;1.30;;;;;;;24.97;45.56;101291.25;5031623;28;20094;-61
2023/07/11 02:54:11;;;;;;;3.83;1.02;;;;;;;24.96;44.68;101294.22;5032473;28;20079;-61
2023/07/11 02:56:37;;;;;;;2.47;1.63;;;;;;;24.94;44.87;101296.28;5031186;28;20029;-61
2023/07/11 02:59:03;;;;;;;1.98;1.23;;;;;;;24.94;45.21;101297.13;5014670;28;20462;-62
2023/07/11 03:01:34;;;;;;;1.75;1.08;;;;;;;24.94;45.34;101290.81;5031268;28;20029;-63
2023/07/11 03:04:00;;;;;;;8.00;1.50;;;;;;;24.95;45.01;101292.50;5031108;28;20382;-63
2023/07/11 03:06:26;;;;;;;5.40;1.90;;;;;;;24.94;44.91;101296.28;5031073;28;20191;-63
2023/07/11 03:08:51;;;;;;;2.40;1.27;;;;;;;24.95;45.16;101292.50;5030805;28;20128;-64
2023/07/11 03:11:17;;;;;;;4.90;1.30;;;;;;;24.95;45.52;101287.03;5047581;28;20037;-63
2023/07/11 03:13:42;;;;;;;5.35;1.70;;;;;;;24.95;45.13;101285.13;5051162;28;20123;-63
2023/07/11 03:16:08;;;;;;;3.53;1.50;;;;;;;24.95;45.13;101281.53;5054623;28;20036;-63
2023/07/11 03:18:33;;;;;;;3.30;1.30;;;;;;;24.95;44.58;101284.28;5055875;28;20115;-63
2023/07/11 03:21:00;;;;;;;6.32;1.25;;;;;;;24.94;45.30;101285.31;5054927;28;20020;-63
2023/07/11 03:23:25;;;;;;;3.70;1.10;;;;;;;24.91;44.93;101281.13;5054553;28;20048;-63
2023/07/11 03:25:51;;;;;;;2.78;1.48;;;;;;;24.87;45.06;101275.22;5054576;28;20110;-64
2023/07/11 03:28:16;;;;;;;1.52;1.00;;;;;;;24.85;44.67;101274.59;5055295;28;20053;-63
2023/07/11 03:30:42;;;;;;;4.15;1.40;;;;;;;24.82;44.86;101272.25;5054307;28;20510;-63
2023/07/11 03:33:08;;;;;;;4.85;1.25;;;;;;;24.80;45.30;101274.38;5037541;28;20032;-62
2023/07/11 03:35:34;;;;;;;2.00;1.42;;;;;;;24.78;45.17;101273.72;5054206;28;20025;-63
2023/07/11 03:37:59;;;;;;;2.55;1.60;;;;;;;24.76;45.27;101270.31;5054705;28;20021;-63
2023/07/11 03:40:25;;;;;;;5.28;1.10;;;;;;;24.76;44.75;101275.81;5037561;28;20036;-63
2023/07/11 03:42:51;;;;;;;1.90;1.23;;;;;;;24.75;45.29;101274.13;5055407;28;20029;-63
2023/07/11 03:45:18;;;;;;;5.72;1.20;;;;;;;24.72;45.06;101266.34;5054072;28;20044;-63
2023/07/11 03:47:43;;;;;;;4.35;1.25;;;;;;;24.73;45.08;101273.53;5054124;28;20025;-63
2023/07/11 03:50:09;;;;;;;2.22;1.35;;;;;;;24.74;45.41;101269.69;5054311;28;20044;-63
2023/07/11 03:52:35;;;;;;;3.60;1.33;;;;;;;24.72;44.48;101266.34;5037223;28;20035;-64
2023/07/11 03:55:00;;;;;;;6.10;1.77;;;;;;;24.72;45.08;101265.50;5047862;28;20064;-63
2023/07/11 03:57:26;;;;;;;2.63;1.27;;;;;;;24.72;44.81;101266.34;5017561;28;20103;-63
2023/07/11 03:59:51;;;;;;;2.88;1.48;;;;;;;24.71;45.05;101258.31;5017434;28;20503;-63
2023/07/11 04:02:17;;;;;;;4.13;1.38;;;;;;;24.74;45.18;101258.75;5001309;28;20087;-64
2023/07/11 04:04:42;;;;;;;2.42;1.52;;;;;;;24.73;45.20;101257.06;5017588;28;20036;-63
2023/07/11 04:07:07;;;;;;;2.15;1.30;;;;;;;24.77;45.27;101252.00;5017559;28;20038;-63
2023/07/11 04:09:33;;;;;;;3.80;2.08;;;;;;;24.76;45.51;101251.13;5017517;28;20052;-63
2023/07/11 04:11:59;;;;;;;2.17;1.27;;;;;;;24.82;44.97;101255.81;5037980;28;20396;-62
2023/07/11 04:14:24;;;;;;;3.58;1.35;;;;;;;24.83;44.67;101254.78;5034808;28;20080;-63
2023/07/11 04:16:50;;;;;;;4.78;2.10;;;;;;;24.83;45.21;101246.56;5034722;28;20080;-63
2023/07/11 04:19:16;;;;;;;3.90;1.48;;;;;;;24.85;45.36;101249.91;5033615;28;20120;-62
2023/07/11 04:21:41;;;;;;;3.25;1.67;;;;;;;24.86;45.05;101242.53;5000922;28;20551;-61
2023/07/11 04:24:06;;;;;;;5.85;1.58;;;;;;;24.92;45.25;101244.44;5016834;28;20120;-62
2023/07/11 04:26:32;;;;;;;7.65;1.70;;;;;;;24.98;45.29;101242.75;5016743;28;20041;-62
2023/07/11 04:28:57;;;;;;;4.25;1.40;;;;;;;25.05;45.02;101241.66;5017284;28;20043;-62
2023/07/11 04:31:23;;;;;;;3.30;1.40;;;;;;;25.15;45.06;101235.75;5017355;28;20103;-61
2023/07/11 04:33:48;;;;;;;8.30;1.58;;;;;;;25.26;45.38;101237.84;5017156;28;20030;-63
2023/07/11 04:36:15;;;;;;;3.63;1.30;;;;;;;25.36;45.29;101235.47;5033333;28;20029;-62
2023/07/11 04:38:42;;;;;;;3.83;1.63;;;;;;;25.44;45.17;101227.84;5033155;28;20037;-62
2023/07/11 04:41:08;;;;;;;1.40;1.30;;;;;;;25.57;44.92;101231.63;5033247;28;20030;-61
2023/07/11 04:43:34;;;;;;;5.85;1.50;;;;;;;25.67;44.94;101227.38;5050846;28;20041;-61
2023/07/11 04:46:00;;;;;;;2.33;1.38;;;;;;;25.81;45.04;101218.00;5051954;28;20395;-62
2023/07/11 04:48:26;;;;;;;5.43;1.52;;;;;;;25.95;44.77;101219.63;5052890;28;20040;-63
2023/07/11 04:50:57;;;;;;;4.47;1.70;;;;;;;26.11;44.90;101222.88;5053045;28;20032;-62
2023/07/11 04:53:22;;;;;;;11.63;1.95;;;;;;;26.25;44.62;101214.38;5053092;28;20033;-62
2023/07/11 04:55:54;;;;;;;2.15;1.30;;;;;;;26.44;44.74;101212.53;5052975;28;20062;-62
2023/07/11 04:58:20;;;;;;;2.05;1.58;;;;;;;26.61;44.41;101220.00;5054042;28;20082;-62
2023/07/11 05:00:45;;;;;;;3.53;1.50;;;;;;;26.77;44.35;101218.59;5019895;28;20025;-62
2023/07/11 05:03:10;;;;;;;7.80;1.80;;;;;;;26.91;43.67;101209.16;5032648;28;20033;-62
2023/07/11 05:05:36;;;;;;;1.63;1.33;;;;;;;27.10;43.41;101208.16;5016124;28;20485;-62
2023/07/11 05:08:01;;;;;;;3.13;1.30;;;;;;;27.27;43.18;101207.53;5032548;28;20048;-62
2023/07/11 05:10:26;;;;;;;6.75;1.40;;;;;;;27.41;43.72;101198.94;5032587;28;20041;-63
2023/07/11 05:12:52;;;;;;;2.33;0.98;;;;;;;27.58;42.79;101202.72;5032655;28;20561;-62
2023/07/11 05:15:18;;;;;;;2.72;1.27;;;;;;;27.72;43.35;101189.63;5032390;28;20029;-62
2023/07/11 05:17:43;;;;;;;2.65;1.40;;;;;;;27.90;42.30;101203.34;5033755;28;20036;-62
2023/07/11 05:20:09;;;;;;;1.85;1.30;;;;;;;28.05;42.37;101194.69;5032622;28;20568;-62
2023/07/11 05:22:34;;;;;;;3.80;1.48;;;;;;;28.23;42.72;101189.94;5033069;28;20408;-62
2023/07/11 05:25:00;;;;;;;2.90;1.60;;;;;;;28.41;42.04;101193.69;5034488;28;20057;-62
2023/07/11 05:27:27;;;;;;;3.95;1.30;;;;;;;28.59;41.39;101188.06;5034068;28;20042;-62
2023/07/11 05:29:52;;;;;;;3.67;2.10;;;;;;;28.75;41.39;101179.13;5032684;28;20528;-63
2023/07/11 05:32:17;;;;;;;2.65;1.40;;;;;;;28.93;40.69;101173.47;5032810;28;20508;-62
2023/07/11 05:34:43;;;;;;;5.10;1.58;;;;;;;29.12;40.69;101172.25;5033869;28;20037;-61
2023/07/11 05:37:08;;;;;;;2.83;1.10;;;;;;;29.31;40.92;101173.78;5033244;28;20033;-61
2023/07/11 05:39:34;;;;;;;4.60;1.02;;;;;;;29.51;40.62;101167.03;5034403;28;20038;-62
2023/07/11 05:42:00;;;;;;;3.83;1.30;;;;;;;29.69;39.94;101167.66;5052361;28;20135;-62
2023/07/11 05:44:26;;;;;;;4.80;1.38;;;;;;;29.86;40.18;101165.00;5052299;28;20033;-63
2023/07/11 05:46:51;;;;;;;3.25;1.17;;;;;;;30.05;39.75;101160.91;5051779;28;20044;-62
2023/07/11 05:49:17;;;;;;;3.08;1.30;;;;;;;30.18;39.44;101157.81;5035609;28;20115;-62
2023/07/11 05:51:42;;;;;;;5.63;1.30;;;;;;;30.33;38.87;101158.09;5052306;28;20044;-62
2023/07/11 05:54:08;;;;;;;4.85;1.17;;;;;;;30.51;38.84;101157.84;5053435;28;20047;-62
2023/07/11 05:56:34;;;;;;;6.65;1.30;;;;;;;30.69;38.43;101150.38;5051149;28;20036;-62
2023/07/11 05:58:59;;;;;;;3.65;1.45;;;;;;;30.82;38.30;101141.75;5051855;28;20492;-62
2023/07/11 06:01:27;;;;;;;2.63;1.45;;;;;;;31.01;37.56;101148.69;5053835;28;20044;-62
2023/07/11 06:04:03;;;;;;;3.65;1.75;;;;;;;31.20;37.63;101141.72;5035388;28;20052;-64
2023/07/11 06:06:28;;;;;;;4.63;1.60;;;;;;;31.38;37.21;101137.81;5016067;28;20041;-62
2023/07/11 06:08:55;;;;;;;4.85;1.10;;;;;;;31.51;37.25;101131.88;5033286;28;20041;-62
2023/07/11 06:11:20;;;;;;;2.28;1.20;;;;;;;31.69;37.26;101121.28;5031919;28;20500;-61
2023/07/11 06:13:45;;;;;;;3.50;1.20;;;;;;;31.84;36.77;101122.53;5021692;28;20044;-62
2023/07/11 06:16:15;;;;;;;2.22;1.25;;;;;;;32.01;36.52;101128.81;5040064;28;20040;-62
2023/07/11 06:18:40;;;;;;;7.07;1.13;;;;;;;32.17;36.19;101125.91;5043286;28;20033;-63
2023/07/11 06:21:08;;;;;;;3.65;0.98;;;;;;;32.35;35.71;101126.63;5060560;28;20043;-63
2023/07/11 06:23:34;;;;;;;2.50;1.30;;;;;;;32.49;35.65;101125.91;5060185;28;20033;-62
2023/07/11 06:26:00;;;;;;;2.38;1.20;;;;;;;32.65;35.23;101133.25;5061504;28;20097;-62
2023/07/11 06:28:27;;;;;;;2.30;1.10;;;;;;;32.82;35.72;101131.16;5054996;28;20052;-62
2023/07/11 06:30:56;;;;;;;3.17;1.30;;;;;;;32.97;35.60;101133.16;5017753;28;20036;-62
2023/07/11 06:33:22;;;;;;;3.40;1.30;;;;;;;33.14;35.70;101127.44;5035404;28;20033;-62
2023/07/11 06:35:52;;;;;;;14.05;1.40;;;;;;;33.25;34.39;101123.63;5053944;28;20040;-62
2023/07/11 06:38:18;;;;;;;5.43;1.65;;;;;;;33.39;34.25;101130.34;5036246;28;20033;-63
2023/07/11 06:40:55;;;;;;;5.60;1.58;;;;;;;33.55;34.96;101128.41;5052501;28;20033;-62
2023/07/11 06:43:22;;;;;;;2.38;1.45;;;;;;;33.69;34.49;101121.25;5054461;28;20026;-62
2023/07/11 06:45:48;;;;;;;3.63;1.20;;;;;;;33.80;34.53;101115.44;5051938;28;20029;-62
2023/07/11 06:48:15;;;;;;;5.75;1.30;;;;;;;33.89;33.72;101113.75;5052368;28;20033;-63
2023/07/11 06:50:40;;;;;;;1.38;1.05;;;;;;;33.98;34.11;101116.84;5055812;28;20071;-62
2023/07/11 06:53:05;;;;;;;3.95;1.05;;;;;;;34.10;33.08;101114.66;5055936;28;20041;-63
2023/07/11 06:55:31;;;;;;;4.78;1.50;;;;;;;34.24;33.54;101114.94;5055576;28;20037;-63
2023/07/11 06:57:56;;;;;;;4.43;1.77;;;;;;;34.31;33.79;101115.50;5055476;28;20029;-63
2023/07/11 07:00:24;;;;;;;6.10;1.55;;;;;;;34.38;32.71;101113.25;5038847;28;20041;-63
2023/07/11 07:02:50;;;;;;;3.15;1.17;;;;;;;34.50;33.33;101122.16;5055448;28;20167;-63
2023/07/11 07:05:16;;;;;;;5.07;1.15;;;;;;;34.55;33.06;101119.34;5055124;28;20495;-63
2023/07/11 07:07:41;;;;;;;6.55;1.38;;;;;;;34.62;32.46;101114.34;5055216;28;20048;-63
2023/07/11 07:10:07;;;;;;;4.03;1.45;;;;;;;34.72;32.95;101114.34;5055186;28;20025;-62
2023/07/11 07:12:33;;;;;;;6.03;1.90;;;;;;;34.87;32.34;101108.72;5038241;28;20404;-62
2023/07/11 07:14:58;;;;;;;7.15;2.33;;;;;;;35.08;32.09;101107.56;5054977;28;20036;-62
2023/07/11 07:17:23;;;;;;;4.45;1.50;;;;;;;35.25;32.26;101109.16;5054522;28;20025;-62
2023/07/11 07:19:49;;;;;;;3.88;1.65;;;;;;;35.25;32.53;101109.16;5054657;28;20036;-62
2023/07/11 07:22:15;;;;;;;5.97;1.63;;;;;;;35.14;31.84;101105.59;5055919;28;20433;-62
2023/07/11 07:24:41;;;;;;;4.93;1.30;;;;;;;35.03;32.13;101106.72;5055967;28;20037;-62
2023/07/11 07:27:06;;;;;;;5.30;1.75;;;;;;;35.30;32.33;101106.34;5037684;28;20041;-63
2023/07/11 07:29:31;;;;;;;4.88;1.27;;;;;;;35.52;31.77;101104.81;5054925;28;20037;-63
2023/07/11 07:31:57;;;;;;;3.67;1.80;;;;;;;35.63;31.72;101100.88;5054836;28;20035;-63
2023/07/11 07:34:22;;;;;;;5.55;1.17;;;;;;;35.71;31.17;101105.00;5054738;28;20091;-62
2023/07/11 07:36:48;;;;;;;5.25;1.23;;;;;;;35.85;31.12;101103.25;5037918;28;20048;-62
2023/07/11 07:39:13;;;;;;;3.72;1.27;;;;;;;36.11;31.35;101101.94;5054782;28;20025;-62
2023/07/11 07:41:39;;;;;;;4.35;1.30;;;;;;;36.36;30.89;101102.84;5054776;28;20029;-63
2023/07/11 07:44:04;;;;;;;4.70;1.55;;;;;;;36.56;30.71;101097.09;5055946;28;20056;-63
2023/07/11 07:46:29;;;;;;;3.67;1.65;;;;;;;36.78;31.05;101102.97;5037862;28;20082;-63
2023/07/11 07:48:55;;;;;;;5.80;1.13;;;;;;;36.97;29.75;101089.94;5054630;28;20400;-63
2023/07/11 07:51:20;;;;;;;3.83;1.30;;;;;;;37.15;29.77;101089.16;5054303;28;20029;-62
2023/07/11 07:53:46;;;;;;;2.63;1.10;;;;;;;36.92;30.04;101089.97;5053974;28;20496;-63
2023/07/11 07:56:14;;;;;;;3.40;1.30;;;;;;;37.07;30.00;101083.41;5037370;28;20029;-63
2023/07/11 07:58:40;;;;;;;3.28;1.13;;;;;;;37.23;29.39;101085.69;5054221;28;20163;-63
2023/07/11 08:01:05;;;;;;;3.05;1.20;;;;;;;37.45;29.61;101087.91;5023532;28;20120;-63
2023/07/11 08:03:36;;;;;;;1.58;1.10;;;;;;;37.63;29.51;101081.50;5010170;28;20038;-62
2023/07/11 08:06:01;;;;;;;6.70;1.67;;;;;;;37.83;29.17;101086.75;5017579;28;20037;-63
2023/07/11 08:08:27;;;;;;;3.78;1.45;;;;;;;37.96;28.62;101082.41;5017293;28;20026;-63
2023/07/11 08:10:52;;;;;;;3.60;1.52;;;;;;;38.15;28.10;101083.19;5041697;28;20047;-63
2023/07/11 08:13:18;;;;;;;4.57;1.05;;;;;;;38.34;28.15;101084.00;5036693;28;20123;-62
2023/07/11 08:15:43;;;;;;;1.92;0.90;;;;;;;38.43;28.10;101084.13;5034947;28;20029;-62
2023/07/11 08:18:09;;;;;;;3.47;0.85;;;;;;;38.42;27.32;101079.63;5033683;28;20115;-62
2023/07/11 08:20:35;;;;;;;5.40;1.42;;;;;;;38.51;27.32;101077.78;5017182;28;20100;-63
2023/07/11 08:23:00;;;;;;;6.38;1.63;;;;;;;38.63;27.90;101075.31;5033650;28;20036;-62
2023/07/11 08:25:25;;;;;;;4.55;1.20;;;;;;;38.74;26.94;101075.94;5035009;28;20041;-64
2023/07/11 08:27:51;;;;;;;10.70;1.55;;;;;;;38.89;26.59;101072.88;5033490;28;20095;-64
2023/07/11 08:30:16;;;;;;;4.47;1.55;;;;;;;39.05;27.02;101076.16;5034804;28;20553;-64
2023/07/11 08:32:43;;;;;;;6.50;1.05;;;;;;;39.26;27.22;101069.81;5000873;28;20493;-67
2023/07/11 08:35:08;;;;;;;6.72;1.60;;;;;;;39.45;26.45;101064.91;5017031;28;20061;-64
2023/07/11 08:37:34;;;;;;;2.58;1.60;;;;;;;39.62;26.24;101061.41;5034757;28;20103;-65
2023/07/11 08:40:00;;;;;;;3.83;1.15;;;;;;;39.80;26.16;101066.06;5034491;28;20021;-66
2023/07/11 08:42:34;;;;;;;3.42;1.42;;;;;;;39.88;26.36;101054.06;5052332;28;20514;-64
2023/07/11 08:45:23;;;;;;;4.45;1.30;;;;;;;39.64;26.80;101061.13;5036631;28;20029;-63
2023/07/11 08:47:53;;;;;;;4.20;1.27;;;;;;;39.14;26.22;101052.72;5036657;28;20029;-63
2023/07/11 08:50:23;;;;;;;3.17;1.25;;;;;;;38.74;26.41;101048.75;5053909;28;20033;-64
2023/07/11 08:52:51;;;;;;;3.67;1.10;;;;;;;38.58;25.97;101043.78;5035816;28;20036;-64
2023/07/11 08:55:21;;;;;;;2.15;1.20;;;;;;;38.48;26.34;101039.19;5036707;28;20083;-64
2023/07/11 08:58:03;;;;;;;3.72;1.08;;;;;;;38.72;25.76;101045.44;5052779;28;20039;-64
2023/07/11 09:00:30;;;;;;;2.63;1.25;;;;;;;38.95;25.80;101037.97;5054464;28;20500;-64
2023/07/11 09:03:38;;;;;;;5.80;1.83;;;;;;;39.17;26.40;101043.63;5036436;28;20052;-64
2023/07/11 09:06:06;;;;;;;7.93;2.33;;;;;;;39.40;25.86;101034.16;5058007;28;20025;-64
2023/07/11 09:08:33;;;;;;;2.58;0.98;;;;;;;39.61;25.70;101030.88;5062526;28;20037;-64
2023/07/11 09:11:12;;;;;;;4.18;1.40;;;;;;;39.71;25.14;101027.84;5059562;28;20450;-65
2023/07/11 09:13:50;;;;;;;5.25;1.25;;;;;;;39.49;24.91;101032.28;5044903;28;20039;-64
2023/07/11 09:16:20;;;;;;;5.03;1.55;;;;;;;39.85;25.10;101031.41;5059725;28;20053;-64
2023/07/11 09:19:16;;;;;;;2.25;1.52;;;;;;;40.01;24.71;101038.28;5057338;28;20013;-63
2023/07/11 09:21:59;;;;;;;3.70;1.73;;;;;;;40.28;24.63;101032.53;5055209;28;20520;-63
2023/07/11 09:24:30;;;;;;;2.67;0.90;;;;;;;40.49;24.60;101025.22;5052916;28;20127;-63
2023/07/11 09:26:59;;;;;;;2.78;1.40;;;;;;;40.68;24.52;101025.78;5054448;28;20056;-63
2023/07/11 09:29:25;;;;;;;1.98;1.00;;;;;;;40.88;23.95;101023.53;5057394;28;20033;-63
2023/07/11 09:32:01;;;;;;;3.63;1.10;;;;;;;40.91;23.81;101023.72;5053093;28;20120;-64
2023/07/11 09:34:32;;;;;;;2.78;1.40;;;;;;;41.03;23.72;101020.28;5052647;28;20523;-63
2023/07/11 09:36:58;;;;;;;1.48;1.00;;;;;;;41.17;23.92;101016.19;5052183;28;20040;-63
2023/07/11 09:39:33;;;;;;;2.28;1.08;;;;;;;41.20;23.76;101011.88;5052487;28;20033;-63
2023/07/11 09:42:04;;;;;;;1.05;0.93;;;;;;;41.01;24.17;101006.56;5052104;28;20040;-62
2023/07/11 09:44:29;;;;;;;5.43;1.10;;;;;;;41.27;23.49;100998.13;5052185;28;20040;-63
2023/07/11 09:46:55;;;;;;;4.53;1.40;;;;;;;41.44;23.27;101006.63;5035582;28;20033;-63
2023/07/11 09:49:29;;;;;;;2.95;1.50;;;;;;;41.38;23.27;101005.13;5035528;28;20504;-63
2023/07/11 09:51:58;;;;;;;2.53;1.80;;;;;;;41.39;23.21;101012.41;5051849;28;20029;-65
2023/07/11 09:54:26;;;;;;;5.32;1.45;;;;;;;41.43;23.45;100999.34;5051737;28;20048;-64
2023/07/11 09:56:51;;;;;;;4.20;1.15;;;;;;;41.55;23.03;100999.47;5051704;28;20040;-63
2023/07/11 09:59:18;;;;;;;3.25;1.13;;;;;;;41.75;23.23;101004.47;5051588;28;20029;-62
2023/07/11 10:01:44;;;;;;;3.58;1.23;;;;;;;41.90;23.15;100994.69;5051967;28;20033;-63
2023/07/11 10:04:15;;;;;;;3.30;1.92;;;;;;;42.29;22.91;100999.22;5051675;28;20436;-63
2023/07/11 10:06:42;;;;;;;;;;;;;;;42.61;23.00;100992.94;5052170;28;20036;-64
2023/07/11 10:09:24;;;;;;;71.65;68.50;;;;;;;43.18;22.61;100983.97;5035122;28;19924;-64
2023/07/11 10:11:56;;;;;;;8.70;7.85;;;;;;;43.74;21.68;100991.81;5051277;28;20119;-64
2023/07/11 10:14:28;;;;;;;2.20;1.30;;;;;;;45.22;20.94;100995.22;5051707;28;20511;-65
2023/07/11 10:16:54;;;;;;;2.30;1.38;;;;;;;46.50;19.96;100972.16;5034884;28;20021;-64
2023/07/11 10:19:20;;;;;;;2.55;1.48;;;;;;;46.72;19.97;100974.31;5052701;28;20075;-63
2023/07/11 10:21:50;;;;;;;3.92;1.27;;;;;;;46.44;19.73;100962.28;5052670;28;20029;-64
2023/07/11 10:24:24;;;;;;;4.75;1.48;;;;;;;46.16;20.02;100963.19;5052736;28;20029;-65
2023/07/11 10:26:56;;;;;;;6.25;5.30;;;;;;;45.80;19.88;100971.06;5051067;28;20132;-64
2023/07/11 10:29:24;;;;;;;2.65;1.63;;;;;;;45.52;20.63;100968.25;5034808;28;20029;-64
2023/07/11 10:31:52;;;;;;;6.78;1.52;;;;;;;45.04;20.74;100967.22;5051429;28;20079;-62
2023/07/11 10:34:39;;;;;;;3.60;1.80;;;;;;;45.14;20.66;100958.25;5052768;28;20056;-63
2023/07/11 10:37:12;;;;;;;3.80;2.28;;;;;;;45.12;20.91;100954.91;5051322;28;20029;-63
2023/07/11 10:39:48;;;;;;;4.15;1.60;;;;;;;45.15;20.90;100957.03;5051578;28;20029;-63
2023/07/11 10:42:26;;;;;;;3.47;2.10;;;;;;;45.32;20.35;100949.44;5051292;28;20091;-64
2023/07/11 10:45:02;;;;;;;6.75;6.35;;;;;;;45.54;20.00;100957.38;5051137;28;20035;-62
2023/07/11 10:47:32;;;;;;;4.18;1.50;;;;;;;45.08;20.29;100942.69;5051270;28;20052;-63
2023/07/11 10:50:00;;;;;;;2.67;2.47;;;;;;;44.61;20.33;100941.59;5051234;28;20044;-63
2023/07/11 10:52:26;;;;;;;3.03;2.67;;;;;;;44.78;20.19;100940.50;5051187;28;20029;-61
2023/07/11 10:55:05;;;;;;;4.78;2.20;;;;;;;44.96;20.31;100936.22;5034264;28;20112;-63
2023/07/11 10:57:44;;;;;;;6.88;2.13;;;;;;;45.25;19.70;100937.91;5034748;28;20503;-65
2023/07/11 11:00:16;;;;;;;3.13;2.38;;;;;;;45.39;20.04;100941.19;5034147;28;20041;-64
2023/07/11 11:03:29;;;;;;;6.38;2.10;;;;;;;45.53;19.94;100916.94;5052155;28;20025;-66
2023/07/11 11:05:55;;;;;;;2.22;2.03;;;;;;;45.71;19.75;100928.75;4999198;28;20046;-65
2023/07/11 11:08:28;;;;;;;2.90;1.75;;;;;;;45.74;19.79;100921.53;5050095;28;20446;-65
2023/07/11 11:11:30;;;;;;;4.10;2.10;;;;;;;45.81;19.32;100916.91;5050545;28;20518;-65
2023/07/11 11:14:11;;;;;;;2.67;1.58;;;;;;;45.94;19.82;100909.13;5050421;28;20029;-63
2023/07/11 11:17:21;;;;;;;1.30;1.20;;;;;;;46.05;19.59;100899.75;5052277;28;20036;-65
2023/07/11 11:20:16;;;;;;;3.22;1.35;;;;;;;46.24;19.45;100896.16;5050622;28;20041;-66
2023/07/11 11:22:41;;;;;;;3.13;1.48;;;;;;;46.49;19.62;100893.97;5051108;28;20377;-64
2023/07/11 11:25:35;;;;;;;4.95;1.92;;;;;;;46.69;19.20;100889.94;5052408;28;20097;-65
2023/07/11 11:28:22;;;;;;;7.50;1.25;;;;;;;46.80;19.05;100891.03;5039366;28;20048;-64